createdAt,value
2019-01-26T00:02:10.718Z,296.00
2019-01-26T00:04:40.217Z,214.83
2019-01-26T00:07:10.172Z,405.00
2019-01-26T00:09:39.774Z,323.53
2019-01-26T00:12:08.996Z,357.37
2019-01-26T00:14:38.589Z,441.97
2019-01-26T00:17:07.748Z,408.10
2019-01-26T00:19:37.065Z,456.17
2019-01-26T00:22:06.269Z,521.73
2019-01-26T00:24:35.827Z,587.87
2019-01-26T00:27:05.004Z,479.67
2019-01-26T00:29:34.270Z,422.90
2019-01-26T00:32:03.764Z,522.70
2019-01-26T00:34:33.111Z,488.73
2019-01-26T00:37:02.266Z,568.33
2019-01-26T00:39:31.435Z,411.70
2019-01-26T00:42:00.661Z,605.47
2019-01-26T00:44:30.003Z,694.33
2019-01-26T00:46:59.709Z,584.93
2019-01-26T00:49:28.894Z,630.20
2019-01-26T00:51:58.430Z,700.27
2019-01-26T00:54:28.034Z,741.33
2019-01-26T00:56:57.509Z,642.43
2019-01-26T00:59:27.588Z,786.87
2019-01-26T01:01:57.233Z,804.83
2019-01-26T01:04:26.405Z,700.40
2019-01-26T01:06:55.587Z,729.80
2019-01-26T01:09:24.775Z,728.27
2019-01-26T01:11:53.984Z,673.77
2019-01-26T01:14:23.503Z,778.20
2019-01-26T01:16:52.830Z,861.80
2019-01-26T01:19:22.208Z,711.20
2019-01-26T01:21:52.324Z,693.70
2019-01-26T01:24:22.064Z,743.07
2019-01-26T01:26:51.306Z,511.17
2019-01-26T01:29:20.856Z,540.60
2019-01-26T01:31:50.222Z,575.40
2019-01-26T01:34:19.423Z,589.67
2019-01-26T01:36:48.619Z,647.80
2019-01-26T01:39:19.639Z,571.97
2019-01-26T01:41:49.155Z,595.63
2019-01-26T01:44:18.629Z,430.60
2019-01-26T01:46:48.556Z,403.75
2019-01-26T01:49:18.109Z,564.83
2019-01-26T01:51:47.569Z,582.43
2019-01-26T01:54:16.935Z,611.30
2019-01-26T01:56:46.120Z,566.30
2019-01-26T01:59:15.330Z,640.17
2019-01-26T02:01:44.513Z,629.10
2019-01-26T02:04:13.734Z,669.57
2019-01-26T02:06:44.602Z,693.93
2019-01-26T02:09:14.111Z,672.30
2019-01-26T02:11:43.276Z,525.10
2019-01-26T02:14:12.860Z,608.53
2019-01-26T02:16:42.010Z,674.10
2019-01-26T02:19:11.623Z,674.90
2019-01-26T02:21:40.791Z,533.97
2019-01-26T02:24:10.000Z,633.40
2019-01-26T02:26:39.446Z,743.73
2019-01-26T02:29:08.640Z,717.90
2019-01-26T02:31:39.389Z,692.13
2019-01-26T02:34:09.086Z,696.97
2019-01-26T02:36:38.281Z,595.93
2019-01-26T02:39:09.156Z,659.90
2019-01-26T02:41:38.474Z,569.53
2019-01-26T02:44:08.010Z,470.90
2019-01-26T02:46:37.516Z,480.07
2019-01-26T02:49:07.152Z,236.77
2019-01-26T02:51:36.604Z,386.07
2019-01-26T02:54:05.769Z,365.63
2019-01-26T02:56:34.971Z,261.50
2019-01-26T02:59:04.660Z,292.53
2019-01-26T03:01:33.800Z,294.93
2019-01-26T03:04:03.467Z,348.20
2019-01-26T03:06:32.631Z,298.47
2019-01-26T03:09:01.803Z,195.63
2019-01-26T03:11:31.603Z,342.13
2019-01-26T03:14:01.095Z,268.73
2019-01-26T03:16:30.301Z,198.43
2019-01-26T03:18:59.506Z,264.40
2019-01-26T03:21:29.072Z,247.47
2019-01-26T03:23:58.393Z,191.07
2019-01-26T03:26:27.834Z,199.20
2019-01-26T03:28:57.001Z,300.93
2019-01-26T03:31:26.469Z,188.03
2019-01-26T03:33:56.119Z,157.57
2019-01-26T03:36:25.534Z,187.33
2019-01-26T03:38:55.188Z,142.47
2019-01-26T03:41:24.459Z,219.17
2019-01-26T03:43:53.747Z,196.10
2019-01-26T03:46:22.924Z,172.20
2019-01-26T03:48:52.435Z,188.83
2019-01-26T03:51:21.636Z,149.30
2019-01-26T03:53:51.255Z,168.40
2019-01-26T03:56:21.847Z,167.93
2019-01-26T03:58:51.063Z,168.27
2019-01-26T04:01:20.432Z,208.13
2019-01-26T04:03:49.694Z,173.50
2019-01-26T04:06:19.293Z,168.20
2019-01-26T04:08:49.071Z,208.63
2019-01-26T04:11:18.578Z,164.40
2019-01-26T04:13:47.789Z,169.80
2019-01-26T04:16:17.410Z,181.20
2019-01-26T04:18:46.895Z,155.97
2019-01-26T04:21:16.171Z,150.80
2019-01-26T04:23:45.779Z,159.10
2019-01-26T04:26:14.923Z,146.97
2019-01-26T04:28:44.099Z,151.13
2019-01-26T04:31:13.641Z,163.23
2019-01-26T04:33:43.217Z,160.47
2019-01-26T04:36:12.819Z,151.17
2019-01-26T04:38:42.018Z,142.73
2019-01-26T04:41:11.163Z,194.57
2019-01-26T04:43:40.436Z,170.77
2019-01-26T04:46:09.641Z,164.57
2019-01-26T04:48:39.540Z,191.00
2019-01-26T04:51:09.011Z,171.53
2019-01-26T04:53:38.166Z,168.80
2019-01-26T04:56:07.765Z,170.27
2019-01-26T04:58:37.257Z,168.40
2019-01-26T05:01:06.455Z,162.80
2019-01-26T05:03:35.684Z,167.90
2019-01-26T05:06:05.319Z,172.47
2019-01-26T05:08:34.474Z,173.93
2019-01-26T05:11:04.066Z,192.23
2019-01-26T05:13:34.207Z,147.70
2019-01-26T05:16:03.551Z,153.37
2019-01-26T05:18:33.064Z,167.47
2019-01-26T05:21:02.345Z,170.57
2019-01-26T05:23:31.476Z,174.60
2019-01-26T05:26:00.638Z,170.30
2019-01-26T05:28:29.854Z,146.53
2019-01-26T05:30:59.057Z,180.27
2019-01-26T05:33:28.552Z,122.70
2019-01-26T05:35:57.752Z,153.45
2019-01-26T05:38:26.974Z,156.57
2019-01-26T05:40:56.177Z,174.30
2019-01-26T05:43:25.331Z,145.40
2019-01-26T05:45:54.584Z,160.00
2019-01-26T05:48:24.085Z,147.40
2019-01-26T05:50:53.413Z,146.80
2019-01-26T05:53:22.570Z,168.40
2019-01-26T05:55:52.149Z,141.73
2019-01-26T05:58:21.365Z,133.50
2019-01-26T06:00:50.817Z,117.50
2019-01-26T06:03:20.079Z,114.43
2019-01-26T06:05:49.430Z,130.30
2019-01-26T06:08:18.932Z,136.70
2019-01-26T06:10:48.428Z,124.23
2019-01-26T06:13:17.751Z,153.30
2019-01-26T06:15:47.025Z,119.60
2019-01-26T06:18:17.055Z,135.90
2019-01-26T06:20:46.584Z,140.10
2019-01-26T06:23:15.808Z,133.97
2019-01-26T06:25:45.256Z,104.67
2019-01-26T06:28:15.090Z,110.70
2019-01-26T06:30:44.243Z,110.00
2019-01-26T06:33:13.857Z,103.10
2019-01-26T06:35:43.028Z,129.10
2019-01-26T06:38:12.301Z,123.57
2019-01-26T06:40:41.449Z,129.10
2019-01-26T06:43:10.601Z,111.03
2019-01-26T06:45:39.807Z,105.77
2019-01-26T06:48:08.977Z,101.87
2019-01-26T06:50:38.574Z,92.83
2019-01-26T06:53:07.780Z,91.30
2019-01-26T06:55:36.968Z,113.40
2019-01-26T06:58:06.688Z,105.13
2019-01-26T07:00:35.870Z,76.70
2019-01-26T07:03:05.088Z,99.30
2019-01-26T07:05:47.011Z,122.93
2019-01-26T07:08:18.324Z,122.07
2019-01-26T07:10:47.849Z,93.57
2019-01-26T07:13:17.097Z,112.07
2019-01-26T07:15:46.879Z,119.20
2019-01-26T07:18:16.122Z,116.17
2019-01-26T07:20:45.333Z,99.87
2019-01-26T07:23:14.939Z,97.53
2019-01-26T07:25:44.101Z,106.50
2019-01-26T07:28:13.663Z,118.93
2019-01-26T07:30:42.847Z,114.17
2019-01-26T07:33:12.893Z,94.23
2019-01-26T07:35:42.400Z,98.20
2019-01-26T07:38:13.619Z,96.60
2019-01-26T07:40:42.541Z,106.70
2019-01-26T07:43:12.154Z,104.30
2019-01-26T07:45:41.767Z,94.93
2019-01-26T07:48:16.722Z,106.13
2019-01-26T07:50:41.998Z,119.67
2019-01-26T07:53:11.493Z,83.13
2019-01-26T07:55:41.044Z,100.67
2019-01-26T07:58:10.298Z,81.23
2019-01-26T08:00:39.822Z,92.67
2019-01-26T08:03:09.116Z,106.70
2019-01-26T08:05:38.261Z,89.70
2019-01-26T08:08:07.441Z,97.90
2019-01-26T08:10:36.629Z,92.27
2019-01-26T08:13:05.984Z,96.53
2019-01-26T08:15:37.008Z,109.00
2019-01-26T08:18:07.797Z,89.27
2019-01-26T08:20:37.416Z,104.43
2019-01-26T08:23:06.905Z,105.20
2019-01-26T08:25:36.089Z,104.90
2019-01-26T08:28:05.469Z,107.43
2019-01-26T08:30:35.011Z,81.95
2019-01-26T08:33:04.177Z,101.77
2019-01-26T08:35:33.374Z,94.13
2019-01-26T08:38:03.528Z,93.70
2019-01-26T08:40:33.105Z,85.93
2019-01-26T08:43:02.254Z,85.83
2019-01-26T08:45:31.426Z,87.33
2019-01-26T08:48:00.580Z,90.13
2019-01-26T08:50:29.776Z,73.20
2019-01-26T08:53:00.004Z,77.00
2019-01-26T08:55:29.187Z,81.53
2019-01-26T08:57:58.754Z,63.37
2019-01-26T09:00:29.010Z,81.87
2019-01-26T09:03:17.128Z,65.27
2019-01-26T09:06:07.574Z,82.97
2019-01-26T09:08:36.851Z,83.67
2019-01-26T09:11:06.458Z,95.83
2019-01-26T09:13:35.623Z,69.73
2019-01-26T09:16:05.159Z,91.15
2019-01-26T09:18:38.726Z,82.10
2019-01-26T09:21:06.268Z,77.20
2019-01-26T09:23:35.599Z,86.77
2019-01-26T09:26:05.100Z,106.77
2019-01-26T09:28:34.720Z,83.57
2019-01-26T09:31:03.900Z,85.70
2019-01-26T09:33:33.436Z,88.97
2019-01-26T09:36:03.035Z,108.25
2019-01-26T09:38:32.507Z,101.93
2019-01-26T09:41:02.174Z,102.20
2019-01-26T09:43:31.351Z,105.30
2019-01-26T09:46:00.920Z,100.93
2019-01-26T09:48:30.104Z,89.83
2019-01-26T09:50:59.443Z,82.67
2019-01-26T09:53:28.561Z,87.57
2019-01-26T09:55:57.715Z,81.10
2019-01-26T09:58:27.224Z,80.23
2019-01-26T10:00:56.399Z,101.80
2019-01-26T10:03:25.955Z,95.53
2019-01-26T10:05:55.434Z,105.73
2019-01-26T10:08:24.816Z,98.60
2019-01-26T10:10:55.344Z,87.93
2019-01-26T10:13:25.034Z,75.33
2019-01-26T10:15:54.208Z,68.00
2019-01-26T10:18:23.418Z,71.67
2019-01-26T10:20:52.869Z,84.63
2019-01-26T10:23:22.184Z,72.60
2019-01-26T10:25:51.703Z,80.27
2019-01-26T10:28:20.849Z,65.90
2019-01-26T10:30:53.267Z,51.97
2019-01-26T10:33:23.233Z,73.90
2019-01-26T10:36:17.613Z,73.47
2019-01-26T10:39:03.713Z,70.07
2019-01-26T10:41:57.926Z,61.33
2019-01-26T10:44:29.345Z,68.77
2019-01-26T10:46:58.851Z,72.33
2019-01-26T10:49:28.055Z,78.37
2019-01-26T10:51:57.563Z,67.23
2019-01-26T10:54:26.884Z,66.20
2019-01-26T10:56:56.065Z,64.27
2019-01-26T10:59:25.387Z,73.40
2019-01-26T11:01:54.861Z,65.03
2019-01-26T11:04:24.052Z,56.97
2019-01-26T11:06:53.229Z,77.67
2019-01-26T11:09:22.783Z,64.10
2019-01-26T11:11:51.952Z,70.10
2019-01-26T11:14:21.146Z,54.40
2019-01-26T11:16:50.656Z,57.23
2019-01-26T11:19:19.833Z,65.37
2019-01-26T11:21:49.307Z,72.87
2019-01-26T11:24:18.507Z,66.40
2019-01-26T11:26:49.385Z,63.20
2019-01-26T11:29:19.109Z,76.93
2019-01-26T11:31:48.598Z,65.90
2019-01-26T11:34:18.195Z,73.60
2019-01-26T11:36:47.629Z,88.50
2019-01-26T11:39:17.347Z,60.90
2019-01-26T11:41:47.501Z,94.40
2019-01-26T11:44:17.110Z,70.77
2019-01-26T11:46:56.082Z,73.10
2019-01-26T11:49:25.944Z,77.07
2019-01-26T11:52:12.768Z,80.00
2019-01-26T11:54:58.794Z,79.60
2019-01-26T11:57:30.826Z,88.87
2019-01-26T12:00:17.503Z,62.63
2019-01-26T12:02:55.171Z,71.97
2019-01-26T12:05:43.304Z,78.53
2019-01-26T12:08:12.546Z,82.53
2019-01-26T12:10:41.685Z,72.40
2019-01-26T12:13:11.155Z,61.90
2019-01-26T12:15:40.340Z,67.17
2019-01-26T12:18:09.574Z,73.93
2019-01-26T12:20:38.730Z,86.47
2019-01-26T12:23:07.878Z,70.80
2019-01-26T12:25:37.055Z,76.13
2019-01-26T12:28:06.365Z,79.50
2019-01-26T12:30:35.845Z,78.60
2019-01-26T12:33:05.063Z,63.60
2019-01-26T12:35:34.274Z,67.70
2019-01-26T12:38:03.434Z,78.73
2019-01-26T12:40:32.735Z,78.20
2019-01-26T12:43:01.903Z,81.93
2019-01-26T12:45:31.375Z,80.13
2019-01-26T12:48:00.637Z,76.33
2019-01-26T12:50:29.863Z,77.23
2019-01-26T12:52:59.066Z,81.77
2019-01-26T12:55:28.236Z,70.50
2019-01-26T12:57:57.775Z,73.97
2019-01-26T13:00:26.934Z,83.90
2019-01-26T13:02:56.465Z,61.50
2019-01-26T13:05:25.735Z,75.33
2019-01-26T13:07:55.956Z,66.23
2019-01-26T13:10:29.125Z,68.00
2019-01-26T13:12:58.310Z,61.10
2019-01-26T13:15:27.515Z,67.30
2019-01-26T13:17:56.721Z,73.13
2019-01-26T13:20:26.184Z,73.10
2019-01-26T13:22:55.431Z,71.70
2019-01-26T13:25:24.599Z,77.60
2019-01-26T13:27:53.796Z,82.60
2019-01-26T13:30:22.958Z,73.40
2019-01-26T13:32:52.101Z,65.87
2019-01-26T13:35:21.680Z,84.90
2019-01-26T13:37:50.889Z,67.23
2019-01-26T13:40:21.315Z,63.10
2019-01-26T13:42:50.516Z,67.30
2019-01-26T13:45:20.251Z,66.87
2019-01-26T13:47:49.519Z,66.60
2019-01-26T13:50:19.001Z,62.70
2019-01-26T13:52:48.204Z,55.63
2019-01-26T13:55:18.622Z,64.93
2019-01-26T13:57:47.816Z,60.77
2019-01-26T14:00:21.983Z,54.00
2019-01-26T14:02:51.163Z,52.57
2019-01-26T14:05:20.674Z,65.23
2019-01-26T14:07:50.168Z,83.23
2019-01-26T14:10:20.483Z,65.50
2019-01-26T14:12:49.730Z,65.40
2019-01-26T14:15:20.447Z,56.50
2019-01-26T14:17:50.108Z,71.27
2019-01-26T14:20:22.309Z,60.90
2019-01-26T14:22:51.495Z,68.20
2019-01-26T14:25:21.292Z,74.80
2019-01-26T14:27:50.724Z,61.13
2019-01-26T14:30:23.176Z,59.20
2019-01-26T14:32:52.834Z,62.80
2019-01-26T14:35:22.029Z,63.70
2019-01-26T14:37:51.244Z,62.97
2019-01-26T14:40:20.642Z,60.53
2019-01-26T14:42:54.498Z,60.20
2019-01-26T14:45:21.370Z,69.40
2019-01-26T14:47:51.174Z,65.57
2019-01-26T14:50:20.710Z,57.67
2019-01-26T14:52:49.909Z,66.47
2019-01-26T14:55:21.312Z,55.70
2019-01-26T14:57:50.877Z,55.27
2019-01-26T15:00:30.852Z,67.03
2019-01-26T15:03:00.072Z,64.53
2019-01-26T15:05:29.469Z,68.20
2019-01-26T15:07:59.654Z,70.47
2019-01-26T15:10:29.154Z,62.13
2019-01-26T15:12:58.458Z,56.63
2019-01-26T15:15:28.054Z,67.07
2019-01-26T15:17:58.669Z,45.60
2019-01-26T15:20:33.123Z,49.33
2019-01-26T15:23:02.272Z,51.20
2019-01-26T15:25:31.466Z,51.47
2019-01-26T15:28:01.099Z,44.93
2019-01-26T15:30:33.977Z,44.87
2019-01-26T15:33:03.180Z,42.97
2019-01-26T15:35:32.378Z,48.03
2019-01-26T15:38:01.638Z,41.10
2019-01-26T15:40:31.058Z,37.57
2019-01-26T15:43:00.265Z,42.33
2019-01-26T15:45:32.013Z,27.17
2019-01-26T15:48:01.318Z,30.00
2019-01-26T15:50:30.823Z,32.10
2019-01-26T15:53:00.089Z,26.90
2019-01-26T15:55:30.132Z,27.10
2019-01-26T15:57:59.288Z,26.20
2019-01-26T16:00:30.847Z,24.40
2019-01-26T16:02:59.994Z,24.07
2019-01-26T16:05:29.206Z,31.57
2019-01-26T16:07:59.157Z,22.13
2019-01-26T16:10:28.447Z,23.30
2019-01-26T16:12:57.773Z,18.30
2019-01-26T16:15:29.297Z,22.93
2019-01-26T16:17:58.909Z,18.27
2019-01-26T16:20:28.121Z,20.73
2019-01-26T16:22:58.533Z,23.70
2019-01-26T16:25:27.693Z,22.87
2019-01-26T16:27:57.331Z,20.23
2019-01-26T16:30:28.892Z,24.30
2019-01-26T16:32:59.030Z,16.60
2019-01-26T16:35:28.468Z,18.40
2019-01-26T16:37:58.897Z,17.00
2019-01-26T16:40:30.877Z,23.80
2019-01-26T16:43:02.258Z,36.27
2019-01-26T16:45:33.502Z,36.03
2019-01-26T16:48:03.289Z,22.03
2019-01-26T16:50:33.141Z,22.50
2019-01-26T16:53:02.733Z,18.70
2019-01-26T16:55:32.600Z,19.70
2019-01-26T16:58:01.799Z,19.80
2019-01-26T17:00:37.313Z,20.90
2019-01-26T17:03:06.729Z,27.43
2019-01-26T17:05:36.085Z,18.90
2019-01-26T17:08:25.964Z,24.93
2019-01-26T17:10:55.154Z,24.10
2019-01-26T17:13:25.630Z,27.73
2019-01-26T17:15:54.844Z,29.90
2019-01-26T17:18:24.083Z,26.70
2019-01-26T17:20:53.239Z,30.40
2019-01-26T17:23:23.282Z,29.47
2019-01-26T17:25:52.498Z,42.50
2019-01-26T17:28:22.461Z,34.33
2019-01-26T17:30:52.065Z,31.43
2019-01-26T17:33:21.265Z,40.73
2019-01-26T17:35:50.778Z,43.43
2019-01-26T17:38:20.281Z,41.17
2019-01-26T17:40:54.311Z,44.70
2019-01-26T17:43:20.590Z,34.50
2019-01-26T17:45:50.132Z,38.30
2019-01-26T17:48:19.610Z,37.43
2019-01-26T17:50:48.815Z,39.53
2019-01-26T17:53:18.524Z,41.93
2019-01-26T17:55:48.668Z,44.88
2019-01-26T17:58:18.014Z,35.90
2019-01-26T18:00:51.325Z,46.10
2019-01-26T18:03:20.559Z,49.93
2019-01-26T18:05:50.045Z,44.20
2019-01-26T18:08:19.672Z,43.50
2019-01-26T18:10:48.822Z,41.20
2019-01-26T18:13:18.690Z,41.00
2019-01-26T18:15:48.258Z,63.00
2019-01-26T18:18:17.825Z,43.17
2019-01-26T18:20:49.290Z,42.73
2019-01-26T18:23:24.158Z,44.43
2019-01-26T18:25:53.534Z,55.97
2019-01-26T18:28:22.679Z,70.80
2019-01-26T18:30:51.857Z,54.70
2019-01-26T18:33:21.079Z,42.27
2019-01-26T18:35:50.550Z,103.87
2019-01-26T18:38:19.695Z,58.87
2019-01-26T18:40:49.845Z,52.93
2019-01-26T18:43:19.160Z,64.73
2019-01-26T18:45:49.691Z,69.30
2019-01-26T18:48:19.266Z,47.40
2019-01-26T18:50:56.122Z,43.73
2019-01-26T18:53:21.236Z,48.73
2019-01-26T18:55:50.406Z,43.83
2019-01-26T18:58:19.925Z,43.23
2019-01-26T19:00:51.116Z,36.00
2019-01-26T19:03:46.182Z,47.80
2019-01-26T19:06:15.353Z,44.77
2019-01-26T19:08:44.654Z,38.63
2019-01-26T19:11:13.828Z,45.67
2019-01-26T19:13:43.105Z,47.40
2019-01-26T19:16:12.313Z,45.37
2019-01-26T19:18:41.949Z,46.80
2019-01-26T19:21:11.965Z,44.33
2019-01-26T19:23:41.966Z,46.73
2019-01-26T19:26:11.599Z,51.30
2019-01-26T19:29:00.334Z,49.13
2019-01-26T19:31:30.139Z,48.00
2019-01-26T19:33:59.344Z,47.40
2019-01-26T19:36:28.598Z,52.47
2019-01-26T19:38:58.412Z,58.20
2019-01-26T19:41:27.966Z,56.53
2019-01-26T19:43:57.673Z,51.17
2019-01-26T19:46:26.853Z,56.23
2019-01-26T19:48:56.569Z,54.80
2019-01-26T19:51:26.687Z,57.07
2019-01-26T19:53:55.926Z,55.93
2019-01-26T19:56:25.223Z,53.70
2019-01-26T19:58:54.596Z,61.10
2019-01-26T20:01:24.206Z,53.50
2019-01-26T20:03:53.594Z,59.93
2019-01-26T20:06:23.247Z,54.13
2019-01-26T20:08:52.712Z,58.20
2019-01-26T20:11:22.259Z,54.40
2019-01-26T20:13:52.081Z,58.87
2019-01-26T20:16:21.822Z,59.73
2019-01-26T20:18:51.356Z,55.97
2019-01-26T20:21:20.928Z,60.47
2019-01-26T20:23:50.511Z,57.67
2019-01-26T20:26:19.827Z,52.03
2019-01-26T20:28:49.234Z,53.33
2019-01-26T20:31:18.594Z,50.80
2019-01-26T20:33:47.834Z,58.90
2019-01-26T20:36:17.608Z,47.10
2019-01-26T20:38:47.012Z,55.03
2019-01-26T20:41:16.196Z,59.63
2019-01-26T20:43:45.497Z,54.43
2019-01-26T20:46:15.022Z,56.60
2019-01-26T20:48:44.457Z,56.33
2019-01-26T20:51:13.619Z,51.53
2019-01-26T20:53:43.117Z,56.00
2019-01-26T20:56:12.411Z,52.93
2019-01-26T20:58:41.597Z,52.80
2019-01-26T21:01:11.293Z,57.40
2019-01-26T21:03:41.008Z,47.83
2019-01-26T21:06:10.387Z,47.73
2019-01-26T21:08:39.624Z,53.63
2019-01-26T21:11:08.871Z,54.27
2019-01-26T21:13:38.250Z,42.90
2019-01-26T21:16:07.885Z,46.90
2019-01-26T21:18:37.053Z,46.03
2019-01-26T21:21:06.327Z,55.93
2019-01-26T21:23:35.507Z,62.20
2019-01-26T21:26:04.679Z,50.40
2019-01-26T21:28:34.001Z,53.73
2019-01-26T21:31:03.554Z,54.80
2019-01-26T21:33:33.023Z,73.33
2019-01-26T21:36:02.526Z,64.13
2019-01-26T21:38:32.295Z,54.93
2019-01-26T21:41:01.767Z,90.40
2019-01-26T21:43:30.958Z,58.83
2019-01-26T21:46:00.137Z,103.53
2019-01-26T21:48:29.634Z,49.77
2019-01-26T21:50:59.212Z,54.40
2019-01-26T21:53:28.342Z,48.53
2019-01-26T21:55:57.502Z,38.30
2019-01-26T21:58:26.740Z,42.47
2019-01-26T22:00:56.325Z,40.90
2019-01-26T22:03:25.951Z,42.67
2019-01-26T22:05:55.151Z,40.80
2019-01-26T22:08:24.323Z,39.93
2019-01-26T22:10:53.613Z,40.83
2019-01-26T22:13:23.118Z,35.10
2019-01-26T22:15:52.324Z,37.20
2019-01-26T22:18:21.948Z,33.87
2019-01-26T22:20:51.135Z,40.97
2019-01-26T22:23:20.279Z,41.33
2019-01-26T22:25:49.545Z,36.40
2019-01-26T22:28:19.028Z,38.43
2019-01-26T22:30:48.539Z,31.63
2019-01-26T22:33:18.147Z,30.50
2019-01-26T22:35:47.678Z,32.60
2019-01-26T22:38:16.975Z,32.73
2019-01-26T22:40:46.807Z,31.87
2019-01-26T22:43:15.995Z,30.87
2019-01-26T22:45:45.217Z,31.10
2019-01-26T22:48:14.396Z,27.60
2019-01-26T22:50:43.685Z,31.03
2019-01-26T22:53:12.870Z,31.27
2019-01-26T22:55:42.013Z,31.47
2019-01-26T22:58:11.187Z,31.27
2019-01-26T23:00:53.308Z,29.33
2019-01-26T23:03:37.173Z,26.80
2019-01-26T23:06:46.754Z,31.73
2019-01-26T23:09:54.378Z,27.33
2019-01-26T23:12:47.279Z,26.23
2019-01-26T23:15:34.570Z,30.40
2019-01-26T23:18:43.364Z,26.67
2019-01-26T23:21:57.933Z,24.05
2019-01-26T23:25:14.714Z,26.90
2019-01-26T23:27:56.425Z,27.57
2019-01-26T23:30:56.153Z,23.50
2019-01-26T23:33:25.774Z,21.83
2019-01-26T23:35:54.955Z,25.50
2019-01-26T23:38:24.698Z,23.23
2019-01-26T23:40:54.612Z,26.20
2019-01-26T23:43:23.894Z,25.30
2019-01-26T23:45:53.067Z,26.60
2019-01-26T23:48:22.219Z,23.53
2019-01-26T23:50:51.383Z,23.70
2019-01-26T23:53:20.553Z,24.50
2019-01-26T23:55:49.812Z,21.30
2019-01-26T23:58:19.002Z,20.20
